sensor_id;sensor_type;location;lat;lon;timestamp;temperature;humidity
26599;DHT22;14240;51.064;16.612;2023-05-10T00:00:00;8.20;99.90
26599;DHT22;14240;51.064;16.612;2023-05-10T00:02:25;8.20;99.90
26599;DHT22;14240;51.064;16.612;2023-05-10T00:04:52;8.20;99.90
26599;DHT22;14240;51.064;16.612;2023-05-10T00:07:17;8.20;99.90
26599;DHT22;14240;51.064;16.612;2023-05-10T00:09:43;8.20;99.90
26599;DHT22;14240;51.064;16.612;2023-05-10T00:12:09;8.10;99.90
26599;DHT22;14240;51.064;16.612;2023-05-10T00:14:35;8.00;99.90
26599;DHT22;14240;51.064;16.612;2023-05-10T00:17:01;8.00;99.90
26599;DHT22;14240;51.064;16.612;2023-05-10T00:19:26;8.00;99.90
26599;DHT22;14240;51.064;16.612;2023-05-10T00:21:52;7.90;99.90
26599;DHT22;14240;51.064;16.612;2023-05-10T00:24:18;7.90;99.90
26599;DHT22;14240;51.064;16.612;2023-05-10T00:26:43;7.80;99.90
26599;DHT22;14240;51.064;16.612;2023-05-10T00:29:09;7.80;99.90
26599;DHT22;14240;51.064;16.612;2023-05-10T00:31:35;7.70;99.90
26599;DHT22;14240;51.064;16.612;2023-05-10T00:34:00;7.70;99.90
26599;DHT22;14240;51.064;16.612;2023-05-10T00:36:26;7.60;99.90
26599;DHT22;14240;51.064;16.612;2023-05-10T00:38:53;7.50;99.90
26599;DHT22;14240;51.064;16.612;2023-05-10T00:41:18;7.50;99.90
26599;DHT22;14240;51.064;16.612;2023-05-10T00:43:44;7.50;99.90
26599;DHT22;14240;51.064;16.612;2023-05-10T00:46:10;7.50;99.90
26599;DHT22;14240;51.064;16.612;2023-05-10T00:48:36;7.40;99.90
26599;DHT22;14240;51.064;16.612;2023-05-10T00:51:02;7.40;99.90
26599;DHT22;14240;51.064;16.612;2023-05-10T00:53:29;7.40;99.90
26599;DHT22;14240;51.064;16.612;2023-05-10T00:55:56;7.40;99.90
26599;DHT22;14240;51.064;16.612;2023-05-10T00:58:22;7.30;99.90
26599;DHT22;14240;51.064;16.612;2023-05-10T01:00:49;7.30;99.90
26599;DHT22;14240;51.064;16.612;2023-05-10T01:03:15;7.30;99.90
26599;DHT22;14240;51.064;16.612;2023-05-10T01:05:42;7.20;99.90
26599;DHT22;14240;51.064;16.612;2023-05-10T01:08:08;7.20;99.90
26599;DHT22;14240;51.064;16.612;2023-05-10T01:10:34;7.20;99.90
26599;DHT22;14240;51.064;16.612;2023-05-10T01:13:00;7.20;99.90
26599;DHT22;14240;51.064;16.612;2023-05-10T01:15:26;7.20;99.90
26599;DHT22;14240;51.064;16.612;2023-05-10T01:17:52;7.20;99.90
26599;DHT22;14240;51.064;16.612;2023-05-10T01:20:18;7.20;99.90
26599;DHT22;14240;51.064;16.612;2023-05-10T01:36:51;7.00;99.90
26599;DHT22;14240;51.064;16.612;2023-05-10T01:42:20;6.90;99.90
26599;DHT22;14240;51.064;16.612;2023-05-10T01:45:02;6.80;99.90
26599;DHT22;14240;51.064;16.612;2023-05-10T01:47:40;6.80;99.90
26599;DHT22;14240;51.064;16.612;2023-05-10T01:50:20;6.80;99.90
26599;DHT22;14240;51.064;16.612;2023-05-10T01:52:51;6.80;99.90
26599;DHT22;14240;51.064;16.612;2023-05-10T01:55:21;6.70;99.90
26599;DHT22;14240;51.064;16.612;2023-05-10T01:57:52;6.70;99.90
26599;DHT22;14240;51.064;16.612;2023-05-10T02:00:21;6.70;99.90
26599;DHT22;14240;51.064;16.612;2023-05-10T02:02:49;6.70;99.90
26599;DHT22;14240;51.064;16.612;2023-05-10T02:05:16;6.70;99.90
26599;DHT22;14240;51.064;16.612;2023-05-10T02:07:43;6.70;99.90
26599;DHT22;14240;51.064;16.612;2023-05-10T02:10:10;6.70;99.90
26599;DHT22;14240;51.064;16.612;2023-05-10T02:12:37;6.70;99.90
26599;DHT22;14240;51.064;16.612;2023-05-10T02:15:05;6.60;99.90
26599;DHT22;14240;51.064;16.612;2023-05-10T02:17:32;6.60;99.90
26599;DHT22;14240;51.064;16.612;2023-05-10T02:20:01;6.60;99.90
26599;DHT22;14240;51.064;16.612;2023-05-10T02:22:28;6.60;99.90
26599;DHT22;14240;51.064;16.612;2023-05-10T02:24:55;6.50;99.90
26599;DHT22;14240;51.064;16.612;2023-05-10T02:27:23;6.60;99.90
26599;DHT22;14240;51.064;16.612;2023-05-10T02:29:50;6.50;99.90
26599;DHT22;14240;51.064;16.612;2023-05-10T02:32:17;6.50;99.90
26599;DHT22;14240;51.064;16.612;2023-05-10T02:34:44;6.50;99.90
26599;DHT22;14240;51.064;16.612;2023-05-10T02:37:13;6.50;99.90
26599;DHT22;14240;51.064;16.612;2023-05-10T02:39:40;6.50;99.90
26599;DHT22;14240;51.064;16.612;2023-05-10T02:42:16;6.50;99.90
26599;DHT22;14240;51.064;16.612;2023-05-10T02:44:43;6.40;99.90
26599;DHT22;14240;51.064;16.612;2023-05-10T02:47:11;6.40;99.90
26599;DHT22;14240;51.064;16.612;2023-05-10T02:49:36;6.40;99.90
26599;DHT22;14240;51.064;16.612;2023-05-10T02:52:05;6.40;99.90
26599;DHT22;14240;51.064;16.612;2023-05-10T02:54:37;6.40;99.90
26599;DHT22;14240;51.064;16.612;2023-05-10T02:57:05;6.40;99.90
26599;DHT22;14240;51.064;16.612;2023-05-10T02:59:32;6.30;99.90
26599;DHT22;14240;51.064;16.612;2023-05-10T03:01:59;6.30;99.90
26599;DHT22;14240;51.064;16.612;2023-05-10T03:04:25;6.30;99.90
26599;DHT22;14240;51.064;16.612;2023-05-10T03:06:51;6.30;99.90
26599;DHT22;14240;51.064;16.612;2023-05-10T03:09:18;6.30;99.90
26599;DHT22;14240;51.064;16.612;2023-05-10T03:12:00;6.30;99.90
26599;DHT22;14240;51.064;16.612;2023-05-10T03:20:20;6.20;99.90
26599;DHT22;14240;51.064;16.612;2023-05-10T03:22:53;6.20;99.90
26599;DHT22;14240;51.064;16.612;2023-05-10T03:25:21;6.20;99.90
26599;DHT22;14240;51.064;16.612;2023-05-10T03:27:48;6.20;99.90
26599;DHT22;14240;51.064;16.612;2023-05-10T03:30:16;6.20;99.90
26599;DHT22;14240;51.064;16.612;2023-05-10T03:32:42;6.10;99.90
26599;DHT22;14240;51.064;16.612;2023-05-10T03:35:08;6.20;99.90
26599;DHT22;14240;51.064;16.612;2023-05-10T03:37:34;6.10;99.90
26599;DHT22;14240;51.064;16.612;2023-05-10T03:40:01;6.20;99.90
26599;DHT22;14240;51.064;16.612;2023-05-10T03:42:26;6.20;99.90
26599;DHT22;14240;51.064;16.612;2023-05-10T03:44:52;6.20;99.90
26599;DHT22;14240;51.064;16.612;2023-05-10T03:47:18;6.20;99.90
26599;DHT22;14240;51.064;16.612;2023-05-10T03:49:44;6.20;99.90
26599;DHT22;14240;51.064;16.612;2023-05-10T03:52:09;6.20;99.90
26599;DHT22;14240;51.064;16.612;2023-05-10T03:54:35;6.20;99.90
26599;DHT22;14240;51.064;16.612;2023-05-10T03:57:00;6.20;99.90
26599;DHT22;14240;51.064;16.612;2023-05-10T03:59:26;6.30;99.90
26599;DHT22;14240;51.064;16.612;2023-05-10T04:01:52;6.30;99.90
26599;DHT22;14240;51.064;16.612;2023-05-10T04:04:18;6.30;99.90
26599;DHT22;14240;51.064;16.612;2023-05-10T04:06:44;6.40;99.90
26599;DHT22;14240;51.064;16.612;2023-05-10T04:09:10;6.40;99.90
26599;DHT22;14240;51.064;16.612;2023-05-10T04:11:36;6.40;99.90
26599;DHT22;14240;51.064;16.612;2023-05-10T04:14:02;6.40;99.90
26599;DHT22;14240;51.064;16.612;2023-05-10T04:16:27;6.50;99.90
26599;DHT22;14240;51.064;16.612;2023-05-10T04:18:53;6.50;99.90
26599;DHT22;14240;51.064;16.612;2023-05-10T04:21:19;6.60;99.90
26599;DHT22;14240;51.064;16.612;2023-05-10T04:23:45;6.60;99.90
26599;DHT22;14240;51.064;16.612;2023-05-10T04:26:10;6.70;99.90
26599;DHT22;14240;51.064;16.612;2023-05-10T04:28:36;6.80;99.90
26599;DHT22;14240;51.064;16.612;2023-05-10T04:31:06;7.00;99.90
26599;DHT22;14240;51.064;16.612;2023-05-10T04:33:32;7.20;99.90
26599;DHT22;14240;51.064;16.612;2023-05-10T04:35:59;7.30;99.90
26599;DHT22;14240;51.064;16.612;2023-05-10T04:38:25;7.60;99.90
26599;DHT22;14240;51.064;16.612;2023-05-10T04:40:51;7.90;99.90
26599;DHT22;14240;51.064;16.612;2023-05-10T04:43:16;8.20;99.90
26599;DHT22;14240;51.064;16.612;2023-05-10T04:45:42;8.40;99.90
26599;DHT22;14240;51.064;16.612;2023-05-10T04:48:08;8.70;99.90
26599;DHT22;14240;51.064;16.612;2023-05-10T04:50:34;8.90;99.90
26599;DHT22;14240;51.064;16.612;2023-05-10T04:52:59;9.00;99.90
26599;DHT22;14240;51.064;16.612;2023-05-10T04:55:25;9.20;99.90
26599;DHT22;14240;51.064;16.612;2023-05-10T04:57:52;9.40;99.90
26599;DHT22;14240;51.064;16.612;2023-05-10T05:00:18;9.50;99.90
26599;DHT22;14240;51.064;16.612;2023-05-10T05:02:44;9.70;99.90
26599;DHT22;14240;51.064;16.612;2023-05-10T05:05:13;10.00;99.90
26599;DHT22;14240;51.064;16.612;2023-05-10T05:07:39;10.20;99.90
26599;DHT22;14240;51.064;16.612;2023-05-10T05:10:08;10.50;99.90
26599;DHT22;14240;51.064;16.612;2023-05-10T05:12:34;10.80;99.90
26599;DHT22;14240;51.064;16.612;2023-05-10T05:15:01;11.10;99.90
26599;DHT22;14240;51.064;16.612;2023-05-10T05:17:26;11.40;99.90
26599;DHT22;14240;51.064;16.612;2023-05-10T05:19:52;11.70;99.90
26599;DHT22;14240;51.064;16.612;2023-05-10T05:22:18;12.00;99.90
26599;DHT22;14240;51.064;16.612;2023-05-10T05:24:45;12.30;99.90
26599;DHT22;14240;51.064;16.612;2023-05-10T05:27:11;12.60;99.90
26599;DHT22;14240;51.064;16.612;2023-05-10T05:29:36;13.00;99.90
26599;DHT22;14240;51.064;16.612;2023-05-10T05:32:02;13.40;99.90
26599;DHT22;14240;51.064;16.612;2023-05-10T05:34:28;13.80;99.90
26599;DHT22;14240;51.064;16.612;2023-05-10T05:36:54;14.10;99.90
26599;DHT22;14240;51.064;16.612;2023-05-10T05:39:19;14.40;99.90
26599;DHT22;14240;51.064;16.612;2023-05-10T05:41:45;14.70;99.90
26599;DHT22;14240;51.064;16.612;2023-05-10T05:44:11;15.00;99.90
26599;DHT22;14240;51.064;16.612;2023-05-10T05:46:37;15.30;99.90
26599;DHT22;14240;51.064;16.612;2023-05-10T05:49:03;15.60;99.90
26599;DHT22;14240;51.064;16.612;2023-05-10T05:51:29;15.90;99.90
26599;DHT22;14240;51.064;16.612;2023-05-10T05:53:56;16.30;99.90
26599;DHT22;14240;51.064;16.612;2023-05-10T05:56:21;16.60;99.90
26599;DHT22;14240;51.064;16.612;2023-05-10T05:58:52;16.90;99.90
26599;DHT22;14240;51.064;16.612;2023-05-10T06:01:18;17.10;99.90
26599;DHT22;14240;51.064;16.612;2023-05-10T06:03:44;17.20;99.90
26599;DHT22;14240;51.064;16.612;2023-05-10T06:06:09;17.30;99.90
26599;DHT22;14240;51.064;16.612;2023-05-10T06:08:35;17.40;99.60
26599;DHT22;14240;51.064;16.612;2023-05-10T06:11:01;17.40;98.60
26599;DHT22;14240;51.064;16.612;2023-05-10T06:13:27;17.40;98.80
26599;DHT22;14240;51.064;16.612;2023-05-10T06:15:58;17.50;98.10
26599;DHT22;14240;51.064;16.612;2023-05-10T06:18:24;17.50;97.60
26599;DHT22;14240;51.064;16.612;2023-05-10T06:20:50;17.70;97.40
26599;DHT22;14240;51.064;16.612;2023-05-10T06:23:17;17.70;97.20
26599;DHT22;14240;51.064;16.612;2023-05-10T06:25:42;17.80;97.20
26599;DHT22;14240;51.064;16.612;2023-05-10T06:28:09;18.10;97.20
26599;DHT22;14240;51.064;16.612;2023-05-10T06:30:38;18.40;96.90
26599;DHT22;14240;51.064;16.612;2023-05-10T06:33:09;18.60;96.30
26599;DHT22;14240;51.064;16.612;2023-05-10T06:35:46;18.70;95.90
26599;DHT22;14240;51.064;16.612;2023-05-10T06:38:20;18.80;96.20
26599;DHT22;14240;51.064;16.612;2023-05-10T06:40:50;18.90;95.30
26599;DHT22;14240;51.064;16.612;2023-05-10T06:43:21;19.00;94.90
26599;DHT22;14240;51.064;16.612;2023-05-10T06:45:50;19.40;94.50
26599;DHT22;14240;51.064;16.612;2023-05-10T06:48:16;19.70;93.70
26599;DHT22;14240;51.064;16.612;2023-05-10T06:50:41;20.10;92.80
26599;DHT22;14240;51.064;16.612;2023-05-10T06:53:10;20.30;92.30
26599;DHT22;14240;51.064;16.612;2023-05-10T06:55:40;20.30;92.40
26599;DHT22;14240;51.064;16.612;2023-05-10T06:58:08;20.50;91.90
26599;DHT22;14240;51.064;16.612;2023-05-10T07:00:35;20.70;91.10
26599;DHT22;14240;51.064;16.612;2023-05-10T07:03:04;20.60;90.50
26599;DHT22;14240;51.064;16.612;2023-05-10T07:05:31;20.30;90.40
26599;DHT22;14240;51.064;16.612;2023-05-10T07:07:58;20.00;90.20
26599;DHT22;14240;51.064;16.612;2023-05-10T07:10:24;19.90;90.60
26599;DHT22;14240;51.064;16.612;2023-05-10T07:12:50;20.00;90.10
26599;DHT22;14240;51.064;16.612;2023-05-10T07:15:16;20.10;89.90
26599;DHT22;14240;51.064;16.612;2023-05-10T07:17:42;20.10;89.70
26599;DHT22;14240;51.064;16.612;2023-05-10T07:20:08;20.10;89.00
26599;DHT22;14240;51.064;16.612;2023-05-10T07:22:34;20.20;88.20
26599;DHT22;14240;51.064;16.612;2023-05-10T07:24:59;20.30;88.30
26599;DHT22;14240;51.064;16.612;2023-05-10T07:27:25;20.50;88.00
26599;DHT22;14240;51.064;16.612;2023-05-10T07:29:51;20.80;88.00
26599;DHT22;14240;51.064;16.612;2023-05-10T07:32:16;21.10;86.80
26599;DHT22;14240;51.064;16.612;2023-05-10T07:34:42;21.50;87.80
26599;DHT22;14240;51.064;16.612;2023-05-10T07:37:08;22.20;87.30
26599;DHT22;14240;51.064;16.612;2023-05-10T07:39:36;23.00;85.40
26599;DHT22;14240;51.064;16.612;2023-05-10T07:42:02;23.60;82.10
26599;DHT22;14240;51.064;16.612;2023-05-10T07:44:28;23.80;79.70
26599;DHT22;14240;51.064;16.612;2023-05-10T07:46:54;23.90;80.40
26599;DHT22;14240;51.064;16.612;2023-05-10T07:49:21;24.10;79.60
26599;DHT22;14240;51.064;16.612;2023-05-10T07:51:46;24.10;78.50
26599;DHT22;14240;51.064;16.612;2023-05-10T07:54:14;24.20;78.20
26599;DHT22;14240;51.064;16.612;2023-05-10T07:56:39;24.30;78.50
26599;DHT22;14240;51.064;16.612;2023-05-10T07:59:10;24.40;78.10
26599;DHT22;14240;51.064;16.612;2023-05-10T08:01:36;24.60;77.30
26599;DHT22;14240;51.064;16.612;2023-05-10T08:04:02;24.90;76.80
26599;DHT22;14240;51.064;16.612;2023-05-10T08:06:28;25.20;75.60
26599;DHT22;14240;51.064;16.612;2023-05-10T08:08:55;25.20;73.00
26599;DHT22;14240;51.064;16.612;2023-05-10T08:11:21;25.40;72.20
26599;DHT22;14240;51.064;16.612;2023-05-10T08:13:48;25.50;70.40
26599;DHT22;14240;51.064;16.612;2023-05-10T08:16:15;25.50;72.00
26599;DHT22;14240;51.064;16.612;2023-05-10T08:18:41;25.40;70.00
26599;DHT22;14240;51.064;16.612;2023-05-10T08:21:07;25.20;69.10
26599;DHT22;14240;51.064;16.612;2023-05-10T08:23:32;24.90;69.40
26599;DHT22;14240;51.064;16.612;2023-05-10T08:25:59;24.60;69.40
26599;DHT22;14240;51.064;16.612;2023-05-10T08:28:25;24.30;70.60
26599;DHT22;14240;51.064;16.612;2023-05-10T08:30:51;24.20;71.50
26599;DHT22;14240;51.064;16.612;2023-05-10T08:33:18;24.00;71.60
26599;DHT22;14240;51.064;16.612;2023-05-10T08:35:44;23.80;73.80
26599;DHT22;14240;51.064;16.612;2023-05-10T08:38:09;23.90;72.50
26599;DHT22;14240;51.064;16.612;2023-05-10T08:40:37;23.70;73.10
26599;DHT22;14240;51.064;16.612;2023-05-10T08:43:07;23.50;72.10
26599;DHT22;14240;51.064;16.612;2023-05-10T08:45:37;23.40;73.40
26599;DHT22;14240;51.064;16.612;2023-05-10T08:48:06;23.30;74.00
26599;DHT22;14240;51.064;16.612;2023-05-10T08:50:32;23.40;74.80
26599;DHT22;14240;51.064;16.612;2023-05-10T08:53:00;23.30;73.00
26599;DHT22;14240;51.064;16.612;2023-05-10T08:55:29;23.20;74.90
26599;DHT22;14240;51.064;16.612;2023-05-10T08:57:55;23.20;74.80
26599;DHT22;14240;51.064;16.612;2023-05-10T09:00:21;23.10;75.10
26599;DHT22;14240;51.064;16.612;2023-05-10T09:02:49;23.20;75.30
26599;DHT22;14240;51.064;16.612;2023-05-10T09:05:15;23.20;75.70
26599;DHT22;14240;51.064;16.612;2023-05-10T09:07:43;23.20;75.20
26599;DHT22;14240;51.064;16.612;2023-05-10T09:10:09;23.20;75.40
26599;DHT22;14240;51.064;16.612;2023-05-10T09:12:36;23.10;75.10
26599;DHT22;14240;51.064;16.612;2023-05-10T09:15:02;23.00;75.30
26599;DHT22;14240;51.064;16.612;2023-05-10T09:17:29;23.00;75.90
26599;DHT22;14240;51.064;16.612;2023-05-10T09:19:59;23.00;78.00
26599;DHT22;14240;51.064;16.612;2023-05-10T09:22:26;22.90;75.30
26599;DHT22;14240;51.064;16.612;2023-05-10T09:25:24;22.70;75.60
26599;DHT22;14240;51.064;16.612;2023-05-10T09:27:50;22.70;77.40
26599;DHT22;14240;51.064;16.612;2023-05-10T09:30:27;22.60;76.40
26599;DHT22;14240;51.064;16.612;2023-05-10T09:32:53;22.50;76.10
26599;DHT22;14240;51.064;16.612;2023-05-10T09:35:21;22.30;76.40
26599;DHT22;14240;51.064;16.612;2023-05-10T09:37:51;22.30;77.80
26599;DHT22;14240;51.064;16.612;2023-05-10T09:40:25;22.20;76.40
26599;DHT22;14240;51.064;16.612;2023-05-10T09:43:00;22.10;77.50
26599;DHT22;14240;51.064;16.612;2023-05-10T09:45:28;22.20;77.40
26599;DHT22;14240;51.064;16.612;2023-05-10T09:47:55;22.20;77.40
26599;DHT22;14240;51.064;16.612;2023-05-10T09:50:22;22.00;77.60
26599;DHT22;14240;51.064;16.612;2023-05-10T09:53:01;22.00;79.40
26599;DHT22;14240;51.064;16.612;2023-05-10T09:55:42;22.00;78.10
26599;DHT22;14240;51.064;16.612;2023-05-10T09:58:10;22.00;77.80
26599;DHT22;14240;51.064;16.612;2023-05-10T10:00:37;22.10;80.90
26599;DHT22;14240;51.064;16.612;2023-05-10T10:03:03;22.20;81.70
26599;DHT22;14240;51.064;16.612;2023-05-10T10:07:57;22.40;79.10
26599;DHT22;14240;51.064;16.612;2023-05-10T10:10:24;22.40;79.30
26599;DHT22;14240;51.064;16.612;2023-05-10T10:12:50;22.40;78.90
26599;DHT22;14240;51.064;16.612;2023-05-10T10:15:16;22.40;79.20
26599;DHT22;14240;51.064;16.612;2023-05-10T10:17:43;22.30;79.10
26599;DHT22;14240;51.064;16.612;2023-05-10T10:20:09;22.40;79.30
26599;DHT22;14240;51.064;16.612;2023-05-10T10:22:36;22.40;79.20
26599;DHT22;14240;51.064;16.612;2023-05-10T10:25:03;22.40;78.00
26599;DHT22;14240;51.064;16.612;2023-05-10T10:36:02;22.70;76.90
26599;DHT22;14240;51.064;16.612;2023-05-10T10:41:11;22.80;77.50
26599;DHT22;14240;51.064;16.612;2023-05-10T10:49:32;23.00;76.90
26599;DHT22;14240;51.064;16.612;2023-05-10T10:55:14;22.90;75.10
26599;DHT22;14240;51.064;16.612;2023-05-10T11:03:03;22.50;76.30
26599;DHT22;14240;51.064;16.612;2023-05-10T11:05:36;22.30;75.50
26599;DHT22;14240;51.064;16.612;2023-05-10T11:08:31;22.10;77.40
26599;DHT22;14240;51.064;16.612;2023-05-10T11:13:45;22.20;78.90
26599;DHT22;14240;51.064;16.612;2023-05-10T11:16:22;22.30;78.20
26599;DHT22;14240;51.064;16.612;2023-05-10T11:21:18;22.30;77.60
26599;DHT22;14240;51.064;16.612;2023-05-10T11:23:47;22.30;78.20
26599;DHT22;14240;51.064;16.612;2023-05-10T11:26:14;22.40;78.90
26599;DHT22;14240;51.064;16.612;2023-05-10T11:28:44;22.40;77.20
26599;DHT22;14240;51.064;16.612;2023-05-10T11:31:10;22.40;77.60
26599;DHT22;14240;51.064;16.612;2023-05-10T11:33:46;22.40;78.00
26599;DHT22;14240;51.064;16.612;2023-05-10T11:36:34;22.40;76.50
26599;DHT22;14240;51.064;16.612;2023-05-10T11:39:01;22.30;77.10
26599;DHT22;14240;51.064;16.612;2023-05-10T11:41:29;22.30;77.00
26599;DHT22;14240;51.064;16.612;2023-05-10T11:43:56;22.30;76.80
26599;DHT22;14240;51.064;16.612;2023-05-10T11:46:26;22.20;75.90
26599;DHT22;14240;51.064;16.612;2023-05-10T11:48:55;22.20;76.80
26599;DHT22;14240;51.064;16.612;2023-05-10T11:51:25;22.30;75.80
26599;DHT22;14240;51.064;16.612;2023-05-10T11:53:53;22.40;73.70
26599;DHT22;14240;51.064;16.612;2023-05-10T11:56:19;22.30;73.60
26599;DHT22;14240;51.064;16.612;2023-05-10T11:58:56;22.20;73.20
26599;DHT22;14240;51.064;16.612;2023-05-10T12:01:23;22.00;74.70
26599;DHT22;14240;51.064;16.612;2023-05-10T12:03:50;21.70;75.70
26599;DHT22;14240;51.064;16.612;2023-05-10T12:06:16;21.60;76.20
26599;DHT22;14240;51.064;16.612;2023-05-10T12:08:47;21.60;77.20
26599;DHT22;14240;51.064;16.612;2023-05-10T12:11:13;21.50;76.10
26599;DHT22;14240;51.064;16.612;2023-05-10T12:13:43;21.40;75.20
26599;DHT22;14240;51.064;16.612;2023-05-10T12:16:20;21.30;76.20
26599;DHT22;14240;51.064;16.612;2023-05-10T12:18:49;21.30;76.90
26599;DHT22;14240;51.064;16.612;2023-05-10T12:21:16;21.40;76.50
26599;DHT22;14240;51.064;16.612;2023-05-10T12:23:45;21.50;75.40
26599;DHT22;14240;51.064;16.612;2023-05-10T12:26:11;21.50;74.10
26599;DHT22;14240;51.064;16.612;2023-05-10T12:28:37;21.50;73.40
26599;DHT22;14240;51.064;16.612;2023-05-10T12:31:05;21.30;72.90
26599;DHT22;14240;51.064;16.612;2023-05-10T12:33:40;21.30;73.10
26599;DHT22;14240;51.064;16.612;2023-05-10T12:36:13;21.30;71.80
26599;DHT22;14240;51.064;16.612;2023-05-10T12:38:45;21.20;72.40
26599;DHT22;14240;51.064;16.612;2023-05-10T12:41:18;21.20;73.10
26599;DHT22;14240;51.064;16.612;2023-05-10T12:43:44;21.10;73.00
26599;DHT22;14240;51.064;16.612;2023-05-10T12:46:14;21.20;72.50
26599;DHT22;14240;51.064;16.612;2023-05-10T12:48:41;21.20;72.20
26599;DHT22;14240;51.064;16.612;2023-05-10T12:51:07;21.10;72.60
26599;DHT22;14240;51.064;16.612;2023-05-10T12:53:39;21.10;73.60
26599;DHT22;14240;51.064;16.612;2023-05-10T12:56:05;21.10;74.90
26599;DHT22;14240;51.064;16.612;2023-05-10T12:58:31;21.00;75.50
26599;DHT22;14240;51.064;16.612;2023-05-10T13:00:58;21.00;75.20
26599;DHT22;14240;51.064;16.612;2023-05-10T13:03:24;21.00;75.40
26599;DHT22;14240;51.064;16.612;2023-05-10T13:05:50;21.10;75.90
26599;DHT22;14240;51.064;16.612;2023-05-10T13:08:19;21.20;75.30
26599;DHT22;14240;51.064;16.612;2023-05-10T13:10:45;21.30;75.90
26599;DHT22;14240;51.064;16.612;2023-05-10T13:13:10;21.40;75.00
26599;DHT22;14240;51.064;16.612;2023-05-10T13:15:36;21.50;72.90
26599;DHT22;14240;51.064;16.612;2023-05-10T13:18:02;21.50;72.90
26599;DHT22;14240;51.064;16.612;2023-05-10T13:20:28;21.60;72.40
26599;DHT22;14240;51.064;16.612;2023-05-10T13:22:53;21.60;73.60
26599;DHT22;14240;51.064;16.612;2023-05-10T13:25:19;21.20;72.10
26599;DHT22;14240;51.064;16.612;2023-05-10T13:27:45;21.70;73.90
26599;DHT22;14240;51.064;16.612;2023-05-10T13:30:11;21.70;73.30
26599;DHT22;14240;51.064;16.612;2023-05-10T13:32:37;21.70;72.40
26599;DHT22;14240;51.064;16.612;2023-05-10T13:35:03;21.80;73.10
26599;DHT22;14240;51.064;16.612;2023-05-10T13:37:30;21.80;74.10
26599;DHT22;14240;51.064;16.612;2023-05-10T13:39:56;21.80;74.80
26599;DHT22;14240;51.064;16.612;2023-05-10T13:42:22;21.90;74.90
26599;DHT22;14240;51.064;16.612;2023-05-10T13:44:52;21.80;74.60
26599;DHT22;14240;51.064;16.612;2023-05-10T13:47:17;21.80;75.10
26599;DHT22;14240;51.064;16.612;2023-05-10T13:49:43;21.80;74.40
26599;DHT22;14240;51.064;16.612;2023-05-10T13:52:09;21.70;75.30
26599;DHT22;14240;51.064;16.612;2023-05-10T13:54:38;21.70;75.20
26599;DHT22;14240;51.064;16.612;2023-05-10T13:57:04;21.70;75.90
26599;DHT22;14240;51.064;16.612;2023-05-10T13:59:30;21.70;76.00
26599;DHT22;14240;51.064;16.612;2023-05-10T14:01:59;21.70;76.30
26599;DHT22;14240;51.064;16.612;2023-05-10T14:04:26;21.70;75.70
26599;DHT22;14240;51.064;16.612;2023-05-10T14:06:51;21.70;75.20
26599;DHT22;14240;51.064;16.612;2023-05-10T14:09:18;21.70;75.00
26599;DHT22;14240;51.064;16.612;2023-05-10T14:11:44;21.60;74.70
26599;DHT22;14240;51.064;16.612;2023-05-10T14:14:11;21.60;74.60
26599;DHT22;14240;51.064;16.612;2023-05-10T14:16:36;21.60;74.90
26599;DHT22;14240;51.064;16.612;2023-05-10T14:19:02;21.50;76.10
26599;DHT22;14240;51.064;16.612;2023-05-10T14:21:28;21.50;76.10
26599;DHT22;14240;51.064;16.612;2023-05-10T14:23:56;21.40;77.00
26599;DHT22;14240;51.064;16.612;2023-05-10T14:26:21;21.40;77.60
26599;DHT22;14240;51.064;16.612;2023-05-10T14:28:47;21.40;77.40
26599;DHT22;14240;51.064;16.612;2023-05-10T14:31:13;21.40;76.50
26599;DHT22;14240;51.064;16.612;2023-05-10T14:33:40;21.40;76.60
26599;DHT22;14240;51.064;16.612;2023-05-10T14:36:06;21.40;76.60
26599;DHT22;14240;51.064;16.612;2023-05-10T14:38:32;21.40;76.40
26599;DHT22;14240;51.064;16.612;2023-05-10T14:40:58;21.50;77.50
26599;DHT22;14240;51.064;16.612;2023-05-10T14:43:23;21.50;77.10
26599;DHT22;14240;51.064;16.612;2023-05-10T14:45:49;21.60;76.30
26599;DHT22;14240;51.064;16.612;2023-05-10T14:48:15;21.70;76.10
26599;DHT22;14240;51.064;16.612;2023-05-10T14:50:43;21.70;77.40
26599;DHT22;14240;51.064;16.612;2023-05-10T14:53:09;21.80;76.50
26599;DHT22;14240;51.064;16.612;2023-05-10T14:55:35;21.70;76.30
26599;DHT22;14240;51.064;16.612;2023-05-10T14:58:02;21.70;76.50
26599;DHT22;14240;51.064;16.612;2023-05-10T15:00:29;21.70;76.30
26599;DHT22;14240;51.064;16.612;2023-05-10T15:02:55;21.60;75.60
26599;DHT22;14240;51.064;16.612;2023-05-10T15:05:21;21.60;75.90
26599;DHT22;14240;51.064;16.612;2023-05-10T15:07:46;21.50;77.10
26599;DHT22;14240;51.064;16.612;2023-05-10T15:10:12;21.50;76.10
26599;DHT22;14240;51.064;16.612;2023-05-10T15:12:39;21.50;74.50
26599;DHT22;14240;51.064;16.612;2023-05-10T15:15:06;21.40;73.70
26599;DHT22;14240;51.064;16.612;2023-05-10T15:17:32;21.40;73.60
26599;DHT22;14240;51.064;16.612;2023-05-10T15:19:57;21.40;72.40
26599;DHT22;14240;51.064;16.612;2023-05-10T15:22:23;21.40;72.20
26599;DHT22;14240;51.064;16.612;2023-05-10T15:24:49;21.40;71.50
26599;DHT22;14240;51.064;16.612;2023-05-10T15:27:15;21.40;71.10
26599;DHT22;14240;51.064;16.612;2023-05-10T15:29:41;21.40;70.10
26599;DHT22;14240;51.064;16.612;2023-05-10T15:32:06;21.40;69.80
26599;DHT22;14240;51.064;16.612;2023-05-10T15:34:32;21.40;70.70
26599;DHT22;14240;51.064;16.612;2023-05-10T15:36:58;21.40;71.00
26599;DHT22;14240;51.064;16.612;2023-05-10T15:39:24;21.40;71.50
26599;DHT22;14240;51.064;16.612;2023-05-10T15:41:49;21.50;71.50
26599;DHT22;14240;51.064;16.612;2023-05-10T15:44:15;21.60;72.80
26599;DHT22;14240;51.064;16.612;2023-05-10T15:46:41;21.60;72.30
26599;DHT22;14240;51.064;16.612;2023-05-10T15:49:06;21.60;71.30
26599;DHT22;14240;51.064;16.612;2023-05-10T15:51:32;21.70;71.30
26599;DHT22;14240;51.064;16.612;2023-05-10T15:54:00;21.60;70.00
26599;DHT22;14240;51.064;16.612;2023-05-10T15:56:31;21.50;69.90
26599;DHT22;14240;51.064;16.612;2023-05-10T15:58:58;21.50;71.10
26599;DHT22;14240;51.064;16.612;2023-05-10T16:01:23;21.40;71.40
26599;DHT22;14240;51.064;16.612;2023-05-10T16:03:50;21.40;71.10
26599;DHT22;14240;51.064;16.612;2023-05-10T16:06:15;21.40;70.60
26599;DHT22;14240;51.064;16.612;2023-05-10T16:08:41;21.30;70.80
26599;DHT22;14240;51.064;16.612;2023-05-10T16:11:07;21.30;70.60
26599;DHT22;14240;51.064;16.612;2023-05-10T16:13:33;21.20;70.90
26599;DHT22;14240;51.064;16.612;2023-05-10T16:15:59;21.20;70.70